LIRV - Viterbo (it-Mil), Italy
Distanza dalla stazione: W 4km
Aggiornamento: Sun, 26-Jun-2022 6:55am CEST
Clear
Clear
 Wind from NNE
Vento: NNE 9 km/h
Temperatura: 20°C
Dew Point: 16°C
Umidità: 78%
Barometro: 1016 hPa
Previsione: Clear
Visibilità: greater than 10 km
2022/06/26 04:55 LIRV 260455Z 03005KT CAVOK 20/16 Q1016
LIQN - Rieti, Italy
Distanza dalla stazione: E 59km
Aggiornamento: Sat, 25-Jun-2022 7:50pm CEST
NON aggiornato
Clear
Clear
 Wind from SSW
Vento: SSW 11 km/h
Temperatura: 28°C
Heat Index: 28°C
Dew Point: 16°C
Umidità: 48%
Barometro: 1016 hPa
Previsione: Clear
Visibilità: greater than 10 km
2022/06/25 17:50 LIQN 251750Z 20006KT 160V220 CAVOK 28/16 Q1016
 
LIRU - Rome/Urbe (it-Af, Italy
Distanza dalla stazione: SSE 61km
Aggiornamento: Sat, 25-Jun-2022 7:50pm CEST
NON aggiornato
Clear
Clear
 Wind from W
Vento: W 13 km/h
Temperatura: 28°C
Heat Index: 29°C
Dew Point: 19°C
Umidità: 58%
Barometro: 1014 hPa
Previsione: Clear
Visibilità: greater than 10 km
2022/06/25 17:50 LIRU 251750Z 27007KT 240V310 CAVOK 28/19 Q1014
LIRG - Guidonia (it-Afb, Italy
Distanza dalla stazione: SE 68km
Aggiornamento: Fri, 24-Jun-2022 7:55pm CEST
NON aggiornato
Clear
Clear
 Wind from W
Vento: W 7 km/h
Temperatura: 29°C
Heat Index: 28°C
Dew Point: 14°C
Umidità: 40%
Barometro: 1014 hPa
Previsione: Clear
Visibilità: greater than 10 km
2022/06/24 17:55 LIRG 241755Z 26004KT CAVOK 29/14 Q1014
 
LIRF - Rome/Fiumicino, Italy
Distanza dalla stazione: S 71km
Aggiornamento: Sun, 26-Jun-2022 7:20am CEST
Clear
Clear
 Wind from ENE
Vento: ENE 11 km/h
Temperatura: 23°C
Dew Point: 18°C
Umidità: 74%
Barometro: 1014 hPa
Previsione: Clear
Visibilità: greater than 10 km
2022/06/26 05:20 LIRF 260520Z 06006KT CAVOK 23/18 Q1014 NOSIG
LIRA - Ciampino(It-Afb/, Italy
Distanza dalla stazione: SSE 79km
Aggiornamento: Sun, 26-Jun-2022 7:20am CEST
Clear
Clear
 Wind from NE
Vento: NE 6 km/h
Temperatura: 23°C
Dew Point: 16°C
Umidità: 65%
Barometro: 1015 hPa
Previsione: Clear
Visibilità: greater than 10 km
2022/06/26 05:20 LIRA 260520Z 04003KT CAVOK 23/16 Q1015
 
LIRE - Pratica Di Mare(, Italy
Distanza dalla stazione: SSE 90km
Aggiornamento: Sun, 26-Jun-2022 6:55am CEST
Clear
Clear
 Wind from NNE
Vento: NNE 13 km/h
Temperatura: 22°C
Dew Point: 18°C
Umidità: 78%
Barometro: 1014 hPa
Previsione: Clear
Visibilità: greater than 10 km
2022/06/26 04:55 LIRE 260455Z 03007KT CAVOK 22/18 Q1014
LIRS - Grosseto (it-Afb, Italy
Distanza dalla stazione: WNW 93km
Aggiornamento: Sun, 26-Jun-2022 6:55am CEST
Clear
Clear
 Wind from NNE
Vento: NNE 4 km/h
Temperatura: 21°C
Dew Point: 19°C
Umidità: 88%
Barometro: 1015 hPa
Previsione: Clear
Visibilità: greater than 10 km
2022/06/26 04:55 LIRS 260455Z 02002KT CAVOK 21/19 Q1015



Metar display Modification script by: Pomeziameteo / script from Saratoga-Weather.org